createdAt,value
2017-02-26T00:00:22.729Z,17.51
2017-02-26T00:00:48.307Z,17.51
2017-02-26T00:01:13.903Z,17.54
2017-02-26T00:01:39.452Z,17.55
2017-02-26T05:01:13.067Z,17.25
2017-02-26T05:01:38.642Z,17.23
2017-02-26T05:02:04.197Z,17.25
2017-02-26T05:02:29.944Z,17.25
2017-02-26T05:02:55.519Z,17.23
2017-02-26T05:03:21.128Z,17.28
2017-02-26T05:03:46.755Z,17.22
2017-02-26T05:04:12.326Z,17.26
2017-02-26T05:04:38.004Z,17.28
2017-02-26T05:05:03.542Z,17.15
2017-02-26T05:05:29.142Z,17.22
2017-02-26T05:05:54.771Z,17.25
2017-02-26T05:06:20.329Z,17.18
2017-02-26T05:06:46.969Z,17.23
2017-02-26T05:07:11.634Z,17.25
2017-02-26T05:07:38.015Z,17.25
2017-02-26T05:08:03.579Z,17.22
2017-02-26T05:08:29.146Z,17.23
2017-02-26T05:08:54.776Z,17.32
2017-02-26T05:09:20.271Z,17.28
2017-02-26T05:09:45.920Z,17.26
2017-02-26T05:10:11.521Z,17.22
2017-02-26T05:10:37.985Z,17.29
2017-02-26T05:11:03.548Z,17.23
2017-02-26T05:11:29.208Z,17.29
2017-02-26T05:11:54.883Z,17.3
2017-02-26T05:12:20.463Z,17.25
2017-02-26T05:12:46.039Z,17.26
2017-02-26T05:13:11.617Z,17.23
2017-02-26T05:13:37.760Z,17.25
2017-02-26T05:14:03.357Z,17.25
2017-02-26T05:15:06.803Z,17.22
2017-02-26T05:15:32.381Z,17.25
2017-02-26T05:15:57.975Z,17.22
2017-02-26T05:16:23.538Z,17.29
2017-02-26T05:16:49.189Z,17.26
2017-02-26T05:17:14.952Z,17.23
2017-02-26T05:17:40.428Z,17.28
2017-02-26T05:18:06.133Z,17.29
2017-02-26T05:18:32.398Z,17.28
2017-02-26T05:18:57.979Z,17.23
2017-02-26T05:19:23.548Z,17.22
2017-02-26T05:19:49.157Z,17.28
2017-02-26T05:20:14.727Z,17.28
2017-02-26T05:20:40.331Z,17.22
2017-02-26T05:21:05.880Z,17.25
2017-02-26T05:21:31.512Z,17.26
2017-02-26T05:21:57.112Z,17.26
2017-02-26T05:22:23.496Z,17.26
2017-02-26T05:22:49.149Z,17.25
2017-02-26T05:23:14.716Z,17.28
2017-02-26T05:23:40.390Z,17.3
2017-02-26T05:24:06.146Z,17.26
2017-02-26T05:24:31.697Z,17.28
2017-02-26T05:24:57.373Z,17.26
2017-02-26T05:25:22.915Z,17.29
2017-02-26T05:25:49.275Z,17.23
2017-02-26T05:26:14.811Z,17.26
2017-02-26T05:26:40.451Z,17.23
2017-02-26T05:27:06.102Z,17.28
2017-02-26T05:27:31.806Z,17.26
2017-02-26T05:27:58.012Z,17.26
2017-02-26T05:28:23.613Z,17.28
2017-02-26T05:28:49.247Z,17.22
2017-02-26T05:29:14.798Z,17.25
2017-02-26T05:29:40.469Z,17.25
2017-02-26T05:30:06.244Z,17.28
2017-02-26T05:30:31.788Z,17.29
2017-02-26T05:30:57.731Z,17.3
2017-02-26T05:31:23.380Z,17.25
2017-02-26T05:31:48.969Z,17.32
2017-02-26T05:32:14.615Z,17.26
2017-02-26T05:32:40.276Z,17.32
2017-02-26T05:33:05.767Z,17.28
2017-02-26T05:33:31.910Z,17.3
2017-02-26T05:33:57.491Z,17.25
2017-02-26T05:34:23.829Z,17.26
2017-02-26T05:34:49.434Z,17.25
2017-02-26T05:35:15.004Z,17.28
2017-02-26T05:35:40.849Z,17.26
2017-02-26T05:36:07.268Z,17.22
2017-02-26T05:36:32.168Z,17.26
2017-02-26T05:36:57.830Z,17.25
2017-02-26T05:37:23.511Z,17.25
2017-02-26T05:37:49.060Z,17.32
2017-02-26T05:38:14.670Z,17.28
2017-02-26T05:38:40.321Z,17.26
2017-02-26T05:39:05.853Z,17.33
2017-02-26T05:39:31.498Z,17.33
2017-02-26T05:39:57.069Z,17.23
2017-02-26T05:40:22.720Z,17.25
2017-02-26T05:40:48.393Z,17.33
2017-02-26T05:41:13.919Z,17.26
2017-02-26T05:41:39.578Z,17.29
2017-02-26T05:42:05.150Z,17.29
2017-02-26T05:42:30.793Z,17.28
2017-02-26T05:42:56.418Z,17.29
2017-02-26T05:43:21.970Z,17.3
2017-02-26T05:43:47.627Z,17.4
2017-02-26T05:44:13.191Z,17.28
2017-02-26T05:44:38.776Z,17.32
2017-02-26T05:45:04.505Z,17.32
2017-02-26T05:45:30.044Z,17.26
2017-02-26T05:45:55.617Z,17.26
2017-02-26T05:46:21.306Z,17.29
2017-02-26T05:46:46.993Z,17.32
2017-02-26T05:47:12.688Z,17.35
2017-02-26T05:47:38.271Z,17.29
2017-02-26T05:48:03.871Z,17.32
2017-02-26T05:48:29.540Z,17.29
2017-02-26T05:48:55.119Z,17.35
2017-02-26T05:49:20.770Z,17.41
2017-02-26T05:49:46.316Z,17.29
2017-02-26T05:50:11.929Z,17.3
2017-02-26T05:50:37.479Z,17.32
2017-02-26T05:51:03.044Z,17.29
2017-02-26T05:51:28.745Z,17.26
2017-02-26T05:51:54.290Z,17.28
2017-02-26T05:52:19.886Z,17.32
2017-02-26T05:52:46.255Z,17.35
2017-02-26T05:53:11.119Z,17.26
2017-02-26T05:53:36.692Z,17.35
2017-02-26T05:54:02.226Z,17.4
2017-02-26T05:54:27.957Z,17.29
2017-02-26T05:54:53.583Z,17.4
2017-02-26T05:55:19.167Z,17.29
2017-02-26T05:55:44.800Z,17.32
2017-02-26T05:56:10.376Z,17.28
2017-02-26T05:56:35.958Z,17.32
2017-02-26T05:57:01.574Z,17.36
2017-02-26T05:57:27.102Z,17.28
2017-02-26T05:57:52.689Z,17.3
2017-02-26T05:58:18.271Z,17.32
2017-02-26T05:58:43.963Z,17.3
2017-02-26T05:59:09.528Z,17.32
2017-02-26T05:59:35.154Z,17.29
2017-02-26T06:00:00.816Z,17.29
2017-02-26T06:00:26.372Z,17.28
2017-02-26T06:00:52.057Z,17.29
2017-02-26T06:01:18.445Z,17.32
2017-02-26T06:01:44.018Z,17.32
2017-02-26T06:02:09.534Z,17.35
2017-02-26T06:02:35.189Z,17.26
2017-02-26T06:03:00.751Z,17.26
2017-02-26T06:03:26.330Z,17.33
2017-02-26T06:03:51.927Z,17.38
2017-02-26T06:04:17.478Z,17.35
2017-02-26T06:04:43.089Z,17.29
2017-02-26T06:05:08.659Z,17.33
2017-02-26T06:05:34.240Z,17.33
2017-02-26T06:05:59.944Z,17.35
2017-02-26T06:06:25.501Z,17.28
2017-02-26T06:06:51.150Z,17.4
2017-02-26T06:07:16.814Z,17.35
2017-02-26T06:07:42.522Z,17.28
2017-02-26T06:08:08.101Z,17.4
2017-02-26T06:08:33.667Z,17.36
2017-02-26T06:08:59.312Z,17.23
2017-02-26T06:09:24.984Z,17.41
2017-02-26T06:09:50.546Z,17.4
2017-02-26T06:10:16.660Z,17.32
2017-02-26T06:10:42.322Z,17.32
2017-02-26T06:11:07.967Z,17.41
2017-02-26T06:11:33.519Z,17.4
2017-02-26T06:11:59.089Z,17.3
2017-02-26T06:12:24.651Z,17.36
2017-02-26T06:12:50.224Z,17.32
2017-02-26T06:13:15.921Z,17.32
2017-02-26T06:13:41.489Z,17.38
2017-02-26T06:14:07.068Z,17.4
2017-02-26T06:14:32.669Z,17.41
2017-02-26T06:14:58.242Z,17.36
2017-02-26T06:15:23.807Z,17.35
2017-02-26T06:15:49.513Z,17.3
2017-02-26T06:16:15.163Z,17.33
2017-02-26T06:16:40.721Z,17.44
2017-02-26T06:17:06.291Z,17.3
2017-02-26T06:17:31.966Z,17.35
2017-02-26T06:17:58.209Z,17.41
2017-02-26T06:18:23.769Z,17.33
2017-02-26T06:18:49.401Z,17.35
2017-02-26T06:19:15.029Z,17.35
2017-02-26T06:19:40.606Z,17.41
2017-02-26T06:20:06.251Z,17.35
2017-02-26T06:20:32.080Z,17.32
2017-02-26T06:20:57.643Z,17.35
2017-02-26T06:21:23.261Z,17.28
2017-02-26T06:21:48.831Z,17.41
2017-02-26T06:22:47.232Z,17.43
2017-02-26T06:23:40.237Z,17.41
2017-02-26T06:24:05.802Z,17.32
2017-02-26T06:24:31.428Z,17.3
2017-02-26T06:24:56.964Z,17.35
2017-02-26T06:25:22.572Z,17.36
2017-02-26T06:25:48.339Z,17.43
2017-02-26T06:26:13.911Z,17.36
2017-02-26T06:26:39.750Z,17.32
2017-02-26T06:27:05.408Z,17.41
2017-02-26T06:27:30.975Z,17.41
2017-02-26T06:27:56.629Z,17.35
2017-02-26T06:28:22.248Z,17.35
2017-02-26T06:28:47.822Z,17.33
2017-02-26T06:29:13.494Z,17.38
2017-02-26T06:29:39.942Z,17.43
2017-02-26T06:30:05.514Z,17.35
2017-02-26T06:30:31.171Z,17.32
2017-02-26T06:30:56.750Z,17.36
2017-02-26T06:31:22.459Z,17.35
2017-02-26T06:31:48.017Z,17.44
2017-02-26T06:32:13.679Z,17.35
2017-02-26T06:32:39.347Z,17.36
2017-02-26T06:33:20.633Z,17.4
2017-02-26T06:33:46.278Z,17.35
2017-02-26T06:34:11.840Z,17.33
2017-02-26T06:34:37.451Z,17.38
2017-02-26T06:35:03.018Z,17.41
2017-02-26T06:35:28.625Z,17.33
2017-02-26T06:35:54.241Z,17.38
2017-02-26T06:36:19.858Z,17.4
2017-02-26T06:36:45.469Z,17.35
2017-02-26T06:37:11.944Z,17.38
2017-02-26T06:37:36.626Z,17.4
2017-02-26T06:38:02.289Z,17.36
2017-02-26T06:38:27.826Z,17.32
2017-02-26T06:38:53.496Z,17.36
2017-02-26T06:39:19.045Z,17.33
2017-02-26T06:39:44.648Z,17.36
2017-02-26T06:40:10.223Z,17.33
2017-02-26T06:40:35.849Z,17.4
2017-02-26T06:41:01.432Z,17.4
2017-02-26T06:41:26.981Z,17.35
2017-02-26T06:41:52.596Z,17.41
2017-02-26T06:42:18.206Z,17.36
2017-02-26T06:42:43.816Z,17.33
2017-02-26T06:43:09.453Z,17.35
2017-02-26T06:43:35.005Z,17.33
2017-02-26T06:44:00.626Z,17.35
2017-02-26T06:44:26.173Z,17.36
2017-02-26T06:44:51.851Z,17.38
2017-02-26T06:45:17.523Z,17.35
2017-02-26T06:45:43.093Z,17.32
2017-02-26T06:46:08.756Z,17.38
2017-02-26T06:46:34.313Z,17.35
2017-02-26T06:46:59.926Z,17.4
2017-02-26T06:47:25.613Z,17.36
2017-02-26T06:47:51.189Z,17.36
2017-02-26T06:48:16.903Z,17.36
2017-02-26T06:48:43.129Z,17.38
2017-02-26T06:49:10.706Z,17.38
2017-02-26T06:49:36.341Z,17.38
2017-02-26T06:50:02.040Z,17.36
2017-02-26T06:50:27.717Z,17.38
2017-02-26T06:50:53.304Z,17.38
2017-02-26T06:51:18.928Z,17.48
2017-02-26T06:51:44.551Z,17.4
2017-02-26T06:52:10.108Z,17.44
2017-02-26T06:52:35.684Z,17.36
2017-02-26T06:53:01.244Z,17.4
2017-02-26T06:53:26.930Z,17.38
2017-02-26T06:53:52.660Z,17.38
2017-02-26T06:54:18.230Z,17.36
2017-02-26T06:54:43.895Z,17.38
2017-02-26T06:55:09.538Z,17.36
2017-02-26T06:55:35.050Z,17.4
2017-02-26T06:56:00.704Z,17.43
2017-02-26T06:56:26.586Z,17.4
2017-02-26T06:56:52.162Z,17.36
2017-02-26T06:57:17.947Z,17.36
2017-02-26T06:57:43.601Z,17.38
2017-02-26T06:58:09.202Z,17.4
2017-02-26T06:58:34.862Z,17.4
2017-02-26T06:59:00.428Z,17.43
2017-02-26T06:59:26.195Z,17.35
2017-02-26T06:59:52.455Z,17.35
2017-02-26T07:00:50.121Z,17.41
2017-02-26T07:01:43.163Z,17.43
2017-02-26T07:02:08.828Z,17.36
2017-02-26T07:02:34.495Z,17.41
2017-02-26T07:03:00.053Z,17.4
2017-02-26T07:03:25.628Z,17.4
2017-02-26T07:03:51.183Z,17.41
2017-02-26T07:04:16.747Z,17.38
2017-02-26T07:04:42.319Z,17.43
2017-02-26T07:05:07.925Z,17.41
2017-02-26T07:05:33.520Z,17.41
2017-02-26T07:05:59.100Z,17.43
2017-02-26T07:06:24.643Z,17.43
2017-02-26T07:06:50.210Z,17.43
2017-02-26T07:07:43.461Z,17.38
2017-02-26T07:08:09.229Z,17.4
2017-02-26T07:08:34.982Z,17.38
2017-02-26T07:09:00.632Z,17.43
2017-02-26T07:09:26.205Z,17.41
2017-02-26T07:09:51.780Z,17.43
2017-02-26T07:10:17.427Z,17.4
2017-02-26T07:10:42.991Z,17.41
2017-02-26T07:11:09.419Z,17.43
2017-02-26T07:11:34.217Z,17.43
2017-02-26T07:11:59.771Z,17.41
2017-02-26T07:12:25.339Z,17.43
2017-02-26T07:13:13.456Z,17.46
2017-02-26T07:13:39.029Z,17.43
2017-02-26T07:14:05.049Z,17.41
2017-02-26T07:14:58.035Z,17.36
2017-02-26T07:15:23.625Z,17.4
2017-02-26T07:15:49.173Z,17.43
2017-02-26T07:16:14.901Z,17.4
2017-02-26T07:16:40.447Z,17.4
2017-02-26T07:17:05.988Z,17.44
2017-02-26T07:17:31.543Z,17.41
2017-02-26T07:17:57.097Z,17.4
2017-02-26T07:18:22.661Z,17.41
2017-02-26T07:18:48.298Z,17.44
2017-02-26T07:19:13.844Z,17.38
2017-02-26T07:19:39.378Z,17.46
2017-02-26T07:20:05.520Z,17.43
2017-02-26T07:20:31.097Z,17.4
2017-02-26T07:20:56.667Z,17.46
2017-02-26T07:21:22.263Z,17.41
2017-02-26T07:21:47.838Z,17.47
2017-02-26T07:22:13.419Z,17.41
2017-02-26T07:22:38.980Z,17.41
2017-02-26T07:23:04.571Z,17.38
2017-02-26T07:23:30.176Z,17.43
2017-02-26T07:23:55.770Z,17.4
2017-02-26T07:24:21.339Z,17.4
2017-02-26T07:24:46.911Z,17.43
2017-02-26T07:25:12.479Z,17.43
2017-02-26T07:25:38.049Z,17.43
2017-02-26T07:26:03.633Z,17.41
2017-02-26T07:26:29.217Z,17.48
2017-02-26T07:26:54.773Z,17.41
2017-02-26T07:27:20.340Z,17.36
2017-02-26T07:27:45.911Z,17.43
2017-02-26T07:28:11.478Z,17.43
2017-02-26T07:28:37.050Z,17.43
2017-02-26T07:29:02.615Z,17.43
2017-02-26T07:29:28.177Z,17.41
2017-02-26T07:29:53.748Z,17.48
2017-02-26T07:30:19.305Z,17.4
2017-02-26T07:30:44.892Z,17.4
2017-02-26T07:31:10.476Z,17.44
2017-02-26T07:31:36.002Z,17.44
2017-02-26T07:32:01.582Z,17.44
2017-02-26T07:32:27.168Z,17.44
2017-02-26T07:32:52.739Z,17.46
2017-02-26T07:33:19.264Z,17.46
2017-02-26T07:33:43.879Z,17.44
2017-02-26T07:34:09.634Z,17.47
2017-02-26T07:34:35.219Z,17.46
2017-02-26T07:35:00.805Z,17.4
2017-02-26T07:35:26.399Z,17.43
2017-02-26T07:35:51.976Z,17.47
2017-02-26T07:36:17.580Z,17.47
2017-02-26T07:36:43.285Z,17.43
2017-02-26T07:37:08.874Z,17.47
2017-02-26T07:37:34.412Z,17.43
2017-02-26T07:38:37.912Z,17.44
2017-02-26T07:39:41.084Z,17.43
2017-02-26T07:40:06.744Z,17.48
2017-02-26T07:40:32.303Z,17.43
2017-02-26T07:40:57.880Z,17.43
2017-02-26T07:41:23.444Z,17.47
2017-02-26T07:41:49.018Z,17.47
2017-02-26T07:42:14.575Z,17.44
2017-02-26T07:42:40.839Z,17.46
2017-02-26T07:43:06.390Z,17.43
2017-02-26T07:43:31.987Z,17.44
2017-02-26T07:43:58.318Z,17.47
2017-02-26T07:44:23.939Z,17.43
2017-02-26T07:44:49.508Z,17.44
2017-02-26T07:45:15.076Z,17.44
2017-02-26T07:45:40.654Z,17.44
2017-02-26T07:46:06.226Z,17.5
2017-02-26T07:46:31.782Z,17.46
2017-02-26T07:46:57.372Z,17.46
2017-02-26T07:47:23.038Z,17.43
2017-02-26T07:47:48.604Z,17.46
2017-02-26T07:48:14.168Z,17.44
2017-02-26T07:48:39.727Z,17.44
2017-02-26T07:49:05.283Z,17.46
2017-02-26T07:49:30.890Z,17.44
2017-02-26T07:49:56.557Z,17.43
2017-02-26T07:50:22.122Z,17.4
2017-02-26T07:50:47.704Z,17.44
2017-02-26T07:51:13.275Z,17.46
2017-02-26T07:51:38.847Z,17.47
2017-02-26T07:52:04.461Z,17.41
2017-02-26T07:52:30.047Z,17.44
2017-02-26T07:52:55.624Z,17.43
2017-02-26T07:53:21.242Z,17.44
2017-02-26T07:53:47.682Z,17.41
2017-02-26T07:54:13.230Z,17.4
2017-02-26T07:54:38.825Z,17.44
2017-02-26T07:55:04.365Z,17.47
2017-02-26T07:55:30.012Z,17.48
2017-02-26T07:55:55.679Z,17.44
2017-02-26T07:56:21.254Z,17.44
2017-02-26T07:56:46.822Z,17.47
2017-02-26T07:57:12.437Z,17.44
2017-02-26T07:57:38.238Z,17.47
2017-02-26T07:58:03.868Z,17.5
2017-02-26T07:58:29.469Z,17.44
2017-02-26T07:58:55.077Z,17.44
2017-02-26T07:59:20.641Z,17.44
2017-02-26T07:59:46.227Z,17.47
2017-02-26T08:00:11.928Z,17.44
2017-02-26T08:00:37.525Z,17.46
2017-02-26T08:01:03.103Z,17.5
2017-02-26T08:01:28.689Z,17.46
2017-02-26T08:01:54.291Z,17.38
2017-02-26T08:02:19.938Z,17.33
2017-02-26T08:02:45.516Z,17.46
2017-02-26T08:03:11.091Z,17.46
2017-02-26T08:03:37.324Z,17.46
2017-02-26T08:04:02.212Z,17.48
2017-02-26T08:04:27.779Z,17.54
2017-02-26T08:04:53.366Z,17.46
2017-02-26T08:05:18.940Z,17.46
2017-02-26T08:05:44.491Z,17.41
2017-02-26T08:06:10.094Z,17.46
2017-02-26T08:06:35.655Z,17.44
2017-02-26T08:07:01.271Z,17.47
2017-02-26T08:07:26.829Z,17.46
2017-02-26T08:07:53.327Z,17.48
2017-02-26T08:08:17.959Z,17.47
2017-02-26T08:08:43.642Z,17.43
2017-02-26T08:09:09.214Z,17.48
2017-02-26T08:09:34.784Z,17.48
2017-02-26T08:10:00.511Z,17.4
2017-02-26T08:10:26.082Z,17.48
2017-02-26T08:10:51.671Z,17.41
2017-02-26T08:11:17.237Z,17.46
2017-02-26T08:11:42.816Z,17.54
2017-02-26T08:12:08.369Z,17.44
2017-02-26T08:12:34.091Z,17.51
2017-02-26T08:12:59.670Z,17.46
2017-02-26T08:13:25.239Z,17.47
2017-02-26T08:14:23.699Z,17.48
2017-02-26T08:14:49.268Z,17.51
2017-02-26T08:15:14.831Z,17.44
2017-02-26T08:15:40.577Z,17.5
2017-02-26T08:16:06.153Z,17.48
2017-02-26T08:16:31.696Z,17.46
2017-02-26T08:16:57.245Z,17.51
2017-02-26T08:17:22.883Z,17.5
2017-02-26T08:17:48.475Z,17.51
2017-02-26T08:18:14.030Z,17.48
2017-02-26T08:18:39.580Z,17.48
2017-02-26T08:19:05.230Z,17.53
2017-02-26T08:19:30.858Z,17.47
2017-02-26T08:19:56.422Z,17.51
2017-02-26T08:20:22.629Z,17.51
2017-02-26T08:20:48.192Z,17.5
2017-02-26T08:21:13.771Z,17.48
2017-02-26T08:21:39.341Z,17.5
2017-02-26T08:22:04.951Z,17.57
2017-02-26T08:22:30.493Z,17.54
2017-02-26T08:22:56.065Z,17.54
2017-02-26T08:23:21.637Z,17.55
2017-02-26T08:23:47.289Z,17.53
2017-02-26T08:24:12.868Z,17.53
2017-02-26T08:24:38.420Z,17.59
2017-02-26T08:25:04.018Z,17.53
2017-02-26T08:25:29.586Z,17.53
2017-02-26T08:26:22.838Z,17.51
2017-02-26T08:26:48.412Z,17.51
2017-02-26T08:27:13.968Z,17.54
2017-02-26T08:27:39.535Z,17.54
2017-02-26T08:28:05.135Z,17.54
2017-02-26T08:28:30.734Z,17.48
2017-02-26T08:28:56.318Z,17.47
2017-02-26T08:29:22.458Z,17.57
2017-02-26T08:29:48.047Z,17.54
2017-02-26T08:30:13.609Z,17.55
2017-02-26T08:30:39.363Z,17.54
2017-02-26T08:31:04.911Z,17.62
2017-02-26T08:31:30.583Z,17.53
2017-02-26T08:31:56.246Z,17.59
2017-02-26T08:32:22.061Z,17.57
2017-02-26T08:32:47.629Z,17.59
2017-02-26T08:33:13.211Z,17.5
2017-02-26T08:33:38.768Z,17.54
2017-02-26T08:34:04.398Z,17.59
2017-02-26T08:34:29.977Z,17.54
2017-02-26T08:34:55.555Z,17.54
2017-02-26T08:35:21.176Z,17.59
2017-02-26T08:35:46.735Z,17.62
2017-02-26T08:36:12.308Z,17.51
2017-02-26T08:36:38.022Z,17.59
2017-02-26T08:37:03.594Z,17.55
2017-02-26T08:37:29.172Z,17.57
2017-02-26T08:37:54.736Z,17.54
2017-02-26T08:38:20.317Z,17.55
2017-02-26T08:38:46.081Z,17.54
2017-02-26T08:39:11.648Z,17.55
2017-02-26T08:39:37.278Z,17.55
2017-02-26T08:40:02.834Z,17.54
2017-02-26T08:40:28.473Z,17.55
2017-02-26T08:40:54.037Z,17.55
2017-02-26T08:41:19.588Z,17.55
2017-02-26T08:41:45.146Z,17.55
2017-02-26T08:42:10.918Z,17.55
2017-02-26T08:42:36.496Z,17.59
2017-02-26T08:43:02.052Z,17.55
2017-02-26T08:44:10.628Z,17.51
2017-02-26T08:44:36.182Z,17.54
2017-02-26T08:45:01.751Z,17.54
2017-02-26T08:45:27.419Z,17.63
2017-02-26T08:45:52.994Z,17.63
2017-02-26T08:46:18.577Z,17.62
2017-02-26T08:46:44.138Z,17.67
2017-02-26T08:47:09.698Z,17.74
2017-02-26T08:47:35.276Z,17.69
2017-02-26T08:48:00.849Z,17.66
2017-02-26T08:48:26.419Z,17.7
2017-02-26T08:48:51.975Z,17.73
2017-02-26T08:49:18.051Z,17.79
2017-02-26T08:49:43.608Z,17.74
2017-02-26T08:50:09.143Z,17.78
2017-02-26T08:50:34.721Z,17.82
2017-02-26T08:51:00.312Z,17.71
2017-02-26T08:51:26.553Z,17.79
2017-02-26T08:51:51.532Z,17.78
2017-02-26T08:52:17.106Z,17.7
2017-02-26T08:52:42.739Z,17.69
2017-02-26T08:53:08.480Z,17.73
2017-02-26T08:53:34.039Z,17.69
2017-02-26T08:53:59.606Z,17.64
2017-02-26T08:54:25.249Z,17.7
2017-02-26T08:54:50.863Z,17.71
2017-02-26T08:55:16.444Z,17.81
2017-02-26T08:55:42.018Z,17.7
2017-02-26T08:56:07.576Z,17.66
2017-02-26T08:56:33.110Z,17.67
2017-02-26T08:56:58.680Z,17.73
2017-02-26T08:57:24.249Z,17.67
2017-02-26T08:57:49.828Z,17.74
2017-02-26T08:58:15.400Z,17.64
2017-02-26T08:58:40.985Z,17.73
2017-02-26T08:59:06.498Z,17.64
2017-02-26T08:59:32.108Z,17.73
2017-02-26T08:59:57.668Z,17.76
2017-02-26T09:00:23.214Z,17.7
2017-02-26T09:00:48.800Z,17.74
2017-02-26T09:01:14.578Z,17.73
2017-02-26T09:01:40.121Z,17.69
2017-02-26T09:02:28.339Z,17.63
2017-02-26T09:02:53.892Z,17.66
2017-02-26T09:03:19.444Z,17.69
2017-02-26T09:03:45.873Z,17.7
2017-02-26T09:04:11.434Z,17.59
2017-02-26T09:04:37.017Z,17.64
2017-02-26T09:05:02.566Z,17.59
2017-02-26T09:05:28.152Z,17.67
2017-02-26T09:05:53.706Z,17.67
2017-02-26T09:06:19.261Z,17.67
2017-02-26T09:06:44.837Z,17.69
2017-02-26T09:07:10.404Z,17.69
2017-02-26T09:07:35.967Z,17.64
2017-02-26T09:08:01.536Z,17.76
2017-02-26T09:08:27.081Z,17.67
2017-02-26T09:08:53.181Z,17.67
2017-02-26T09:09:18.267Z,17.59
2017-02-26T09:09:43.850Z,17.64
2017-02-26T09:10:09.402Z,17.74
2017-02-26T09:10:34.947Z,17.76
2017-02-26T09:11:00.520Z,17.71
2017-02-26T09:11:26.117Z,17.67
2017-02-26T09:11:51.732Z,17.64
2017-02-26T09:12:17.289Z,17.63
2017-02-26T09:12:42.861Z,17.74
2017-02-26T09:13:08.441Z,17.67
2017-02-26T09:13:33.994Z,17.62
2017-02-26T09:13:59.570Z,17.64
2017-02-26T09:14:25.146Z,17.67
2017-02-26T09:14:50.699Z,17.7
2017-02-26T09:15:16.374Z,17.62
2017-02-26T09:15:41.939Z,17.71
2017-02-26T09:16:07.506Z,17.67
2017-02-26T09:16:33.081Z,17.7
2017-02-26T09:16:58.677Z,17.7
2017-02-26T09:17:24.239Z,17.64
2017-02-26T09:17:49.815Z,17.64
2017-02-26T09:18:15.457Z,17.73
2017-02-26T09:18:41.010Z,17.67
2017-02-26T09:19:06.561Z,17.7
2017-02-26T09:19:32.128Z,17.71
2017-02-26T09:19:57.731Z,17.64
2017-02-26T09:20:23.325Z,17.7
2017-02-26T09:20:48.908Z,17.7
2017-02-26T09:21:14.462Z,17.7
2017-02-26T09:21:40.060Z,17.7
2017-02-26T09:22:05.646Z,17.67
2017-02-26T09:22:31.205Z,17.64
2017-02-26T09:22:56.769Z,17.79
2017-02-26T09:23:22.342Z,17.76
2017-02-26T09:23:47.897Z,17.74
2017-02-26T09:24:13.492Z,17.74
2017-02-26T09:24:39.046Z,17.69
2017-02-26T09:25:04.644Z,17.69
2017-02-26T09:25:30.207Z,17.7
2017-02-26T09:25:55.790Z,17.74
2017-02-26T09:26:21.409Z,17.69
2017-02-26T09:26:46.978Z,17.71
2017-02-26T09:27:12.539Z,17.64
2017-02-26T09:27:38.110Z,17.66
2017-02-26T09:28:03.669Z,17.66
2017-02-26T09:28:29.237Z,17.69
2017-02-26T09:28:54.830Z,17.76
2017-02-26T09:29:20.508Z,17.73
2017-02-26T09:29:46.078Z,17.79
2017-02-26T09:30:11.678Z,17.67
2017-02-26T09:30:37.248Z,17.74
2017-02-26T09:31:02.908Z,17.7
2017-02-26T09:31:28.450Z,17.67
2017-02-26T09:31:54.040Z,17.78
2017-02-26T09:32:19.622Z,17.67
2017-02-26T09:32:45.207Z,17.69
2017-02-26T09:33:10.796Z,17.73
2017-02-26T09:33:36.447Z,17.73
2017-02-26T09:34:02.028Z,17.78
2017-02-26T09:34:27.592Z,17.69
2017-02-26T09:34:53.278Z,17.79
2017-02-26T09:35:18.875Z,17.73
2017-02-26T09:35:44.927Z,17.7
2017-02-26T09:36:10.515Z,17.69
2017-02-26T09:36:36.118Z,17.74
2017-02-26T09:37:01.793Z,17.69
2017-02-26T09:37:27.399Z,17.81
2017-02-26T09:37:53.019Z,17.73
2017-02-26T09:38:18.579Z,17.78
2017-02-26T09:38:44.155Z,17.78
2017-02-26T09:39:09.774Z,17.78
2017-02-26T09:39:35.356Z,17.74
2017-02-26T09:40:00.916Z,17.73
2017-02-26T09:40:26.477Z,17.71
2017-02-26T09:40:52.036Z,17.69
2017-02-26T09:41:17.584Z,17.78
2017-02-26T09:41:43.148Z,17.69
2017-02-26T09:42:08.733Z,17.78
2017-02-26T09:42:34.313Z,17.74
2017-02-26T09:43:00.538Z,17.78
2017-02-26T09:43:26.127Z,17.78
2017-02-26T09:43:51.709Z,17.82
2017-02-26T09:44:17.417Z,17.78
2017-02-26T09:44:43.013Z,17.81
2017-02-26T09:45:08.598Z,17.76
2017-02-26T09:45:34.280Z,17.79
2017-02-26T09:45:59.826Z,17.79
2017-02-26T09:46:26.229Z,17.82
2017-02-26T09:46:51.820Z,17.71
2017-02-26T09:47:18.205Z,17.78
2017-02-26T09:47:44.740Z,17.85
2017-02-26T09:48:43.086Z,17.69
2017-02-26T09:49:09.273Z,17.78
2017-02-26T09:49:34.847Z,17.79
2017-02-26T09:50:00.496Z,17.73
2017-02-26T09:50:27.028Z,17.82
2017-02-26T09:50:51.850Z,17.73
2017-02-26T09:51:17.440Z,17.85
2017-02-26T09:51:43.045Z,17.82
2017-02-26T09:52:08.606Z,17.82
2017-02-26T09:52:34.188Z,17.71
2017-02-26T09:52:59.751Z,17.76
2017-02-26T09:53:25.350Z,17.81
2017-02-26T09:53:50.930Z,17.87
2017-02-26T09:54:16.788Z,17.78
2017-02-26T09:54:42.367Z,17.82
2017-02-26T09:55:07.959Z,17.82
2017-02-26T09:55:33.545Z,17.82
2017-02-26T09:55:59.150Z,17.85
2017-02-26T09:56:24.714Z,17.79
2017-02-26T09:56:50.257Z,17.82
2017-02-26T09:57:15.832Z,17.84
2017-02-26T09:57:41.386Z,17.89
2017-02-26T09:58:07.007Z,17.81
2017-02-26T09:58:33.121Z,17.79
2017-02-26T09:58:59.394Z,17.87
2017-02-26T09:59:27.577Z,17.91
2017-02-26T09:59:53.178Z,17.91
2017-02-26T10:00:18.746Z,17.88
2017-02-26T10:00:44.321Z,17.89
2017-02-26T10:01:10.809Z,17.81
2017-02-26T10:01:36.457Z,17.84
2017-02-26T10:02:02.012Z,17.88
2017-02-26T10:02:27.575Z,17.82
2017-02-26T10:02:53.225Z,17.85
2017-02-26T10:03:18.806Z,17.78
2017-02-26T10:03:44.366Z,17.84
2017-02-26T10:04:09.981Z,17.89
2017-02-26T10:04:35.609Z,17.81
2017-02-26T10:05:01.143Z,17.85
2017-02-26T10:05:26.723Z,17.85
2017-02-26T10:05:52.370Z,17.92
2017-02-26T10:06:17.932Z,17.89
2017-02-26T10:06:43.493Z,17.81
2017-02-26T10:07:09.055Z,17.88
2017-02-26T10:07:34.613Z,17.91
2017-02-26T10:08:00.169Z,17.89
2017-02-26T10:08:25.756Z,17.91
2017-02-26T10:08:51.315Z,17.87
2017-02-26T10:09:16.880Z,17.82
2017-02-26T10:09:42.483Z,17.88
2017-02-26T10:10:08.532Z,17.87
2017-02-26T10:10:33.621Z,17.92
2017-02-26T10:10:59.785Z,17.82
2017-02-26T10:11:25.347Z,17.87
2017-02-26T10:11:52.034Z,17.84
2017-02-26T10:12:16.687Z,17.95
2017-02-26T10:12:43.033Z,17.94
2017-02-26T10:13:08.638Z,17.87
2017-02-26T10:13:34.196Z,17.95
2017-02-26T10:13:59.761Z,17.88
2017-02-26T10:14:26.174Z,17.91
2017-02-26T10:14:51.755Z,17.89
2017-02-26T10:15:17.362Z,17.85
2017-02-26T10:15:43.232Z,17.92
2017-02-26T10:16:08.820Z,17.89
2017-02-26T10:16:34.388Z,17.89
2017-02-26T10:16:59.932Z,17.89
2017-02-26T10:17:25.494Z,17.95
2017-02-26T10:18:18.771Z,17.88
2017-02-26T10:18:44.326Z,17.92
2017-02-26T10:19:09.908Z,17.89
2017-02-26T10:19:35.497Z,17.92
2017-02-26T10:20:01.066Z,17.87
2017-02-26T10:20:26.647Z,17.94
2017-02-26T10:20:53.201Z,17.87
2017-02-26T10:21:18.329Z,17.89
2017-02-26T10:22:11.302Z,17.88
2017-02-26T10:22:37.787Z,17.97
2017-02-26T10:23:45.247Z,17.89
2017-02-26T10:25:48.255Z,17.87
2017-02-26T10:26:13.878Z,17.84
2017-02-26T10:26:39.453Z,17.84
2017-02-26T10:27:05.528Z,17.87
2017-02-26T10:27:31.126Z,17.82
2017-02-26T10:27:56.828Z,17.92
2017-02-26T10:28:22.429Z,17.91
2017-02-26T10:28:48.096Z,17.82
2017-02-26T10:29:13.704Z,17.92
2017-02-26T10:29:40.193Z,17.91
2017-02-26T10:30:04.854Z,17.97
2017-02-26T10:30:30.529Z,17.87
2017-02-26T10:30:56.102Z,17.89
2017-02-26T10:31:23.193Z,17.87
2017-02-26T10:31:47.923Z,17.88
2017-02-26T10:32:13.482Z,17.87
2017-02-26T10:32:39.042Z,17.88
2017-02-26T10:33:05.197Z,17.84
2017-02-26T10:33:30.216Z,17.94
2017-02-26T10:33:55.799Z,17.89
2017-02-26T10:34:21.346Z,17.91
2017-02-26T10:34:46.904Z,17.91
2017-02-26T10:35:12.527Z,17.95
2017-02-26T10:35:38.735Z,17.88
2017-02-26T10:36:04.408Z,17.94
2017-02-26T10:36:29.968Z,17.89
2017-02-26T10:36:55.512Z,17.88
2017-02-26T10:37:21.072Z,17.88
2017-02-26T10:37:46.621Z,17.88
2017-02-26T10:38:12.212Z,17.92
2017-02-26T10:38:37.904Z,17.82
2017-02-26T10:39:03.460Z,17.87
2017-02-26T10:39:29.043Z,17.84
2017-02-26T10:39:54.702Z,17.89
2017-02-26T10:40:20.258Z,17.92
2017-02-26T10:40:45.840Z,17.85
2017-02-26T10:41:11.528Z,17.88
2017-02-26T10:41:37.094Z,17.91
2017-02-26T10:42:02.669Z,17.91